createdAt,value
2017-08-26T00:01:50.947Z,9.60
2017-08-26T00:04:17.001Z,17.17
2017-08-26T00:06:43.074Z,10.77
2017-08-26T00:09:09.118Z,12.83
2017-08-26T00:11:35.190Z,10.00
2017-08-26T00:14:01.241Z,10.97
2017-08-26T00:16:27.410Z,11.93
2017-08-26T00:18:53.462Z,10.87
2017-08-26T00:21:19.530Z,15.73
2017-08-26T00:23:45.573Z,9.47
2017-08-26T00:26:11.739Z,11.07
2017-08-26T00:28:37.786Z,11.03
2017-08-26T00:31:03.870Z,13.63
2017-08-26T00:33:29.934Z,10.50
2017-08-26T00:35:56.022Z,23.87
2017-08-26T00:38:22.182Z,16.77
2017-08-26T00:40:48.267Z,14.70
2017-08-26T00:43:14.321Z,12.53
2017-08-26T00:45:40.393Z,14.03
2017-08-26T00:48:06.451Z,13.80
2017-08-26T00:50:32.542Z,13.00
2017-08-26T00:52:58.610Z,17.30
2017-08-26T00:55:24.822Z,16.03
2017-08-26T00:57:50.882Z,17.03
2017-08-26T01:00:16.953Z,18.63
2017-08-26T01:02:43.034Z,13.30
2017-08-26T01:05:16.081Z,17.70
2017-08-26T01:07:42.138Z,14.60
2017-08-26T01:10:08.215Z,11.63
2017-08-26T01:12:34.274Z,12.27
2017-08-26T01:15:00.318Z,14.20
2017-08-26T01:17:26.399Z,20.40
2017-08-26T01:19:52.473Z,16.23
2017-08-26T01:22:18.560Z,16.97
2017-08-26T01:24:44.640Z,11.67
2017-08-26T01:27:10.714Z,14.73
2017-08-26T01:29:36.763Z,11.20
2017-08-26T01:32:02.845Z,14.13
2017-08-26T01:34:28.894Z,12.10
2017-08-26T01:36:54.968Z,12.53
2017-08-26T01:39:21.015Z,12.10
2017-08-26T01:41:47.094Z,16.63
2017-08-26T01:44:13.206Z,16.57
2017-08-26T01:46:39.278Z,16.23
2017-08-26T01:49:05.323Z,14.70
2017-08-26T01:51:31.390Z,14.70
2017-08-26T01:53:57.442Z,16.27
2017-08-26T01:56:23.515Z,13.37
2017-08-26T01:58:49.564Z,17.30
2017-08-26T02:01:15.651Z,12.50
2017-08-26T02:03:41.694Z,18.37
2017-08-26T02:06:07.781Z,14.20
2017-08-26T02:08:33.830Z,14.83
2017-08-26T02:10:59.911Z,15.10
2017-08-26T02:13:25.994Z,16.63
2017-08-26T02:15:52.066Z,13.60
2017-08-26T02:18:18.122Z,15.67
2017-08-26T02:20:44.177Z,18.63
2017-08-26T02:23:10.254Z,15.03
2017-08-26T02:25:36.378Z,21.83
2017-08-26T02:28:02.462Z,32.07
2017-08-26T02:30:28.534Z,17.03
2017-08-26T02:32:54.606Z,17.60
2017-08-26T02:35:20.660Z,22.63
2017-08-26T02:37:46.726Z,17.97
2017-08-26T02:40:12.774Z,17.53
2017-08-26T02:42:38.851Z,15.40
2017-08-26T02:45:04.911Z,20.17
2017-08-26T02:47:30.987Z,18.27
2017-08-26T02:49:57.074Z,18.60
2017-08-26T02:52:23.154Z,15.90
2017-08-26T02:54:49.207Z,16.87
2017-08-26T02:57:15.298Z,15.83
2017-08-26T02:59:41.366Z,16.27
2017-08-26T03:02:07.442Z,16.07
2017-08-26T03:04:33.512Z,16.47
2017-08-26T03:06:59.579Z,18.60
2017-08-26T03:09:25.643Z,15.00
2017-08-26T03:11:51.730Z,14.40
2017-08-26T03:14:17.794Z,21.27
2017-08-26T03:16:43.857Z,15.67
2017-08-26T03:19:09.913Z,16.80
2017-08-26T03:21:35.962Z,17.43
2017-08-26T03:24:02.035Z,18.00
2017-08-26T03:26:28.099Z,15.37
2017-08-26T03:28:54.169Z,16.03
2017-08-26T03:31:20.217Z,15.83
2017-08-26T03:33:46.291Z,15.57
2017-08-26T03:36:12.334Z,16.37
2017-08-26T03:38:38.397Z,18.80
2017-08-26T03:41:04.441Z,15.10
2017-08-26T03:43:30.497Z,18.00
2017-08-26T03:45:56.546Z,12.70
2017-08-26T03:48:22.618Z,16.10
2017-08-26T03:50:48.702Z,15.83
2017-08-26T03:53:14.806Z,15.10
2017-08-26T03:55:40.879Z,17.80
2017-08-26T03:58:06.920Z,14.43
2017-08-26T04:00:32.986Z,12.90
2017-08-26T04:02:59.029Z,22.43
2017-08-26T04:05:25.102Z,20.13
2017-08-26T04:07:51.153Z,22.63
2017-08-26T04:10:17.245Z,15.00
2017-08-26T04:12:43.293Z,15.20
2017-08-26T04:15:09.362Z,14.37
2017-08-26T04:17:35.418Z,14.27
2017-08-26T04:20:01.482Z,14.10
2017-08-26T04:22:27.559Z,15.90
2017-08-26T04:24:53.667Z,18.53
2017-08-26T04:27:19.715Z,18.20
2017-08-26T04:29:45.782Z,15.27
2017-08-26T04:32:11.841Z,17.23
2017-08-26T04:34:37.913Z,18.70
2017-08-26T04:37:03.969Z,16.10
2017-08-26T04:39:30.109Z,15.93
2017-08-26T04:41:56.198Z,16.43
2017-08-26T04:44:22.250Z,14.93
2017-08-26T04:46:48.331Z,18.00
2017-08-26T04:49:14.417Z,17.67
2017-08-26T04:51:42.507Z,16.63
2017-08-26T04:54:08.570Z,17.30
2017-08-26T04:56:34.646Z,15.07
2017-08-26T04:59:00.722Z,15.60
2017-08-26T05:01:26.796Z,16.47
2017-08-26T05:03:52.937Z,14.40
2017-08-26T05:06:19.010Z,14.00
2017-08-26T05:08:45.126Z,15.37
2017-08-26T05:11:11.321Z,16.40
2017-08-26T05:13:37.383Z,18.27
2017-08-26T05:16:03.466Z,16.70
2017-08-26T05:18:29.542Z,20.93
2017-08-26T05:20:55.662Z,15.33
2017-08-26T05:23:21.728Z,17.83
2017-08-26T05:25:47.856Z,14.83
2017-08-26T05:28:14.014Z,16.77
2017-08-26T05:30:40.230Z,19.37
2017-08-26T05:33:06.286Z,15.20
2017-08-26T05:35:32.422Z,16.30
2017-08-26T05:37:58.502Z,14.67
2017-08-26T05:40:24.561Z,14.33
2017-08-26T05:42:50.654Z,17.50
2017-08-26T05:45:16.726Z,13.57
2017-08-26T05:47:42.787Z,12.50
2017-08-26T05:50:08.834Z,13.50
2017-08-26T05:52:35.230Z,12.47
2017-08-26T05:55:01.474Z,13.10
2017-08-26T05:57:27.534Z,17.97
2017-08-26T05:59:53.583Z,12.70
2017-08-26T06:02:19.703Z,13.67
2017-08-26T06:04:45.758Z,13.00
2017-08-26T06:07:11.832Z,14.00
2017-08-26T06:09:39.376Z,13.77
2017-08-26T06:12:05.475Z,10.83
2017-08-26T06:14:31.533Z,11.23
2017-08-26T06:16:57.582Z,12.67
2017-08-26T06:19:23.652Z,11.13
2017-08-26T06:21:49.762Z,11.83
2017-08-26T06:24:15.999Z,13.27
2017-08-26T06:26:42.068Z,11.90
2017-08-26T06:29:08.126Z,14.53
2017-08-26T06:31:34.162Z,13.47
2017-08-26T06:34:00.975Z,10.60
2017-08-26T06:36:27.030Z,10.57
2017-08-26T06:38:53.138Z,12.03
2017-08-26T06:41:19.190Z,8.97
2017-08-26T06:43:45.245Z,9.40
2017-08-26T06:46:11.310Z,13.57
2017-08-26T06:48:37.378Z,10.50
2017-08-26T06:51:03.425Z,11.23
2017-08-26T06:53:29.502Z,10.83
2017-08-26T06:55:55.545Z,9.07
2017-08-26T06:58:21.604Z,8.87
2017-08-26T07:00:47.675Z,11.20
2017-08-26T07:03:13.817Z,12.03
2017-08-26T07:05:39.860Z,10.87
2017-08-26T07:08:05.914Z,12.77
2017-08-26T07:10:31.960Z,8.40
2017-08-26T07:12:58.026Z,11.00
2017-08-26T07:15:24.066Z,9.60
2017-08-26T07:17:50.130Z,8.13
2017-08-26T07:20:16.194Z,8.60
2017-08-26T07:22:42.234Z,10.10
2017-08-26T07:25:08.402Z,8.73
2017-08-26T07:27:34.450Z,14.20
2017-08-26T07:30:00.510Z,13.13
2017-08-26T07:32:26.566Z,10.23
2017-08-26T07:34:52.646Z,10.13
2017-08-26T07:37:18.698Z,11.37
2017-08-26T07:39:44.829Z,9.83
2017-08-26T07:42:10.879Z,11.37
2017-08-26T07:44:36.950Z,9.67
2017-08-26T07:47:02.993Z,10.87
2017-08-26T07:49:29.699Z,8.43
2017-08-26T07:51:55.754Z,11.87
2017-08-26T07:54:21.839Z,9.50
2017-08-26T07:56:47.894Z,8.33
2017-08-26T07:59:13.962Z,12.07
2017-08-26T08:01:40.046Z,9.90
2017-08-26T08:04:06.094Z,9.00
2017-08-26T08:06:32.206Z,9.17
2017-08-26T08:08:58.258Z,13.70
2017-08-26T08:11:24.319Z,10.33
2017-08-26T08:13:50.365Z,10.03
2017-08-26T08:16:16.423Z,13.00
2017-08-26T08:18:42.474Z,10.00
2017-08-26T08:21:08.537Z,9.03
2017-08-26T08:23:34.578Z,10.13
2017-08-26T08:26:00.670Z,11.83
2017-08-26T08:28:26.738Z,14.80
2017-08-26T08:30:52.787Z,9.37
2017-08-26T08:33:18.851Z,8.60
2017-08-26T08:35:44.923Z,12.67
2017-08-26T08:38:10.990Z,10.13
2017-08-26T08:40:37.058Z,9.93
2017-08-26T08:43:03.111Z,9.57
2017-08-26T08:45:29.170Z,9.30
2017-08-26T08:47:55.233Z,9.93
2017-08-26T08:50:21.287Z,7.10
2017-08-26T08:52:47.358Z,9.40
2017-08-26T08:55:13.466Z,10.90
2017-08-26T08:57:39.539Z,6.63
2017-08-26T09:00:05.585Z,10.53
2017-08-26T09:02:31.647Z,8.23
2017-08-26T09:04:57.694Z,7.23
2017-08-26T09:07:23.761Z,7.57
2017-08-26T09:09:49.818Z,9.43
2017-08-26T09:12:15.898Z,8.87
2017-08-26T09:14:41.942Z,7.90
2017-08-26T09:17:08.021Z,11.33
2017-08-26T09:19:34.087Z,8.83
2017-08-26T09:22:00.150Z,6.53
2017-08-26T09:24:26.221Z,10.63
2017-08-26T09:26:52.306Z,9.97
2017-08-26T09:29:18.370Z,8.63
2017-08-26T09:31:44.415Z,9.57
2017-08-26T09:34:10.478Z,7.90
2017-08-26T09:36:36.762Z,10.03
2017-08-26T09:39:02.838Z,8.97
2017-08-26T09:41:28.935Z,8.70
2017-08-26T09:43:54.991Z,12.70
2017-08-26T09:46:21.167Z,6.70
2017-08-26T09:48:47.238Z,10.10
2017-08-26T09:51:13.314Z,9.10
2017-08-26T09:53:39.421Z,9.53
2017-08-26T09:56:12.497Z,7.20
2017-08-26T09:58:38.577Z,7.93
2017-08-26T10:01:26.487Z,12.40
2017-08-26T10:03:52.557Z,9.03
2017-08-26T10:06:18.603Z,10.53
2017-08-26T10:08:44.666Z,10.13
2017-08-26T10:11:10.705Z,11.97
2017-08-26T10:13:36.770Z,9.03
2017-08-26T10:16:02.826Z,12.07
2017-08-26T10:18:28.899Z,9.53
2017-08-26T10:20:54.945Z,7.90
2017-08-26T10:23:21.007Z,10.20
2017-08-26T10:25:47.074Z,9.80
2017-08-26T10:28:13.153Z,9.50
2017-08-26T10:30:39.230Z,15.43
2017-08-26T10:33:05.323Z,10.00
2017-08-26T10:35:31.377Z,10.50
2017-08-26T10:37:57.453Z,9.17
2017-08-26T10:40:23.527Z,13.00
2017-08-26T10:42:49.607Z,9.67
2017-08-26T10:45:15.666Z,7.83
2017-08-26T10:47:42.582Z,9.97
2017-08-26T10:50:08.650Z,10.87
2017-08-26T10:52:34.730Z,12.03
2017-08-26T10:55:00.771Z,11.10
2017-08-26T10:57:26.833Z,10.73
2017-08-26T10:59:52.952Z,12.20
2017-08-26T11:02:19.030Z,11.63
2017-08-26T11:04:45.110Z,9.67
2017-08-26T11:07:11.219Z,11.77
2017-08-26T11:09:37.275Z,10.00
2017-08-26T11:12:03.334Z,16.30
2017-08-26T11:14:29.751Z,10.83
2017-08-26T11:16:55.802Z,7.20
2017-08-26T11:19:21.854Z,7.00
2017-08-26T11:21:47.950Z,8.83
2017-08-26T11:24:14.078Z,8.60
2017-08-26T11:26:40.141Z,8.37
2017-08-26T11:29:06.190Z,13.17
2017-08-26T11:31:32.498Z,11.80
2017-08-26T11:33:58.771Z,7.63
2017-08-26T11:36:24.850Z,8.13
2017-08-26T11:38:50.902Z,7.70
2017-08-26T11:41:16.966Z,12.33
2017-08-26T11:43:43.010Z,6.90
2017-08-26T11:46:09.093Z,9.23
2017-08-26T11:48:35.145Z,6.70
2017-08-26T11:51:01.226Z,7.00
2017-08-26T11:53:27.277Z,6.77
2017-08-26T11:55:53.326Z,8.23
2017-08-26T11:58:19.378Z,8.60
2017-08-26T12:00:45.453Z,8.00
2017-08-26T12:03:11.505Z,6.80
2017-08-26T12:05:37.574Z,7.00
2017-08-26T12:08:03.669Z,8.50
2017-08-26T12:10:29.734Z,12.40
2017-08-26T12:12:55.792Z,6.17
2017-08-26T12:15:21.863Z,7.23
2017-08-26T12:17:47.918Z,8.03
2017-08-26T12:20:14.054Z,7.17
2017-08-26T12:22:40.102Z,6.20
2017-08-26T12:25:06.178Z,7.80
2017-08-26T12:27:32.231Z,10.07
2017-08-26T12:29:58.293Z,6.43
2017-08-26T12:32:24.346Z,6.90
2017-08-26T12:34:50.413Z,5.83
2017-08-26T12:37:16.455Z,15.87
2017-08-26T12:39:42.530Z,6.03
2017-08-26T12:42:08.598Z,10.20
2017-08-26T12:44:34.686Z,7.90
2017-08-26T12:47:00.734Z,5.30
2017-08-26T12:49:26.790Z,5.50
2017-08-26T12:51:52.858Z,5.87
2017-08-26T12:54:18.906Z,6.10
2017-08-26T12:56:44.970Z,6.80
2017-08-26T12:59:11.013Z,6.03
2017-08-26T13:01:37.082Z,5.90
2017-08-26T13:04:03.153Z,6.73
2017-08-26T13:06:29.215Z,7.70
2017-08-26T13:08:55.335Z,18.30
2017-08-26T13:11:21.399Z,6.43
2017-08-26T13:13:47.446Z,6.53
2017-08-26T13:16:13.526Z,7.13
2017-08-26T13:18:39.635Z,10.57
2017-08-26T13:21:05.694Z,6.50
2017-08-26T13:23:31.742Z,6.97
2017-08-26T13:25:57.813Z,14.30
2017-08-26T13:28:23.862Z,10.97
2017-08-26T13:30:49.929Z,8.17
2017-08-26T13:33:15.982Z,6.47
2017-08-26T13:35:42.046Z,8.20
2017-08-26T13:38:08.111Z,11.70
2017-08-26T13:40:34.159Z,8.27
2017-08-26T13:43:00.230Z,8.60
2017-08-26T13:45:26.273Z,10.23
2017-08-26T13:47:52.340Z,8.93
2017-08-26T13:50:18.404Z,8.80
2017-08-26T13:52:44.486Z,9.40
2017-08-26T13:55:10.530Z,8.60
2017-08-26T13:57:36.599Z,13.57
2017-08-26T14:00:02.658Z,9.40
2017-08-26T14:02:28.981Z,10.13
2017-08-26T14:04:55.034Z,8.33
2017-08-26T14:07:21.102Z,7.30
2017-08-26T14:09:47.145Z,16.17
2017-08-26T14:12:13.203Z,8.67
2017-08-26T14:14:39.260Z,10.87
2017-08-26T14:17:05.314Z,11.40
2017-08-26T14:19:31.371Z,10.50
2017-08-26T14:21:57.434Z,11.30
2017-08-26T14:24:23.502Z,12.93
2017-08-26T14:26:49.565Z,11.90
2017-08-26T14:29:15.630Z,11.30
2017-08-26T14:31:41.698Z,11.83
2017-08-26T14:34:07.746Z,8.60
2017-08-26T14:36:33.812Z,8.70
2017-08-26T14:38:59.881Z,8.70
2017-08-26T14:41:25.934Z,9.53
2017-08-26T14:43:51.994Z,9.10
2017-08-26T14:46:18.046Z,9.33
2017-08-26T14:48:44.129Z,9.30
2017-08-26T14:51:10.190Z,8.70
2017-08-26T14:53:36.255Z,9.00
2017-08-26T14:56:02.298Z,10.73
2017-08-26T14:58:28.358Z,7.80
2017-08-26T15:00:54.398Z,8.33
2017-08-26T15:03:20.487Z,11.03
2017-08-26T15:05:46.526Z,11.23
2017-08-26T15:08:12.615Z,7.93
2017-08-26T15:10:38.703Z,12.13
2017-08-26T15:13:04.778Z,9.30
2017-08-26T15:15:30.822Z,10.93
2017-08-26T15:17:56.886Z,9.07
2017-08-26T15:20:22.929Z,9.03
2017-08-26T15:22:48.985Z,8.77
2017-08-26T15:25:15.055Z,8.70
2017-08-26T15:27:41.098Z,8.40
2017-08-26T15:30:07.170Z,10.13
2017-08-26T15:32:33.219Z,8.13
2017-08-26T15:34:59.290Z,11.40
2017-08-26T15:37:25.330Z,10.97
2017-08-26T15:39:51.399Z,19.43
2017-08-26T15:42:17.451Z,8.87
2017-08-26T15:44:43.530Z,8.37
2017-08-26T15:47:09.586Z,10.73
2017-08-26T15:49:35.658Z,8.37
2017-08-26T15:52:01.702Z,8.63
2017-08-26T15:54:27.780Z,7.40
2017-08-26T15:56:53.827Z,8.30
2017-08-26T15:59:19.888Z,10.23
2017-08-26T16:01:45.930Z,8.60
2017-08-26T16:04:11.990Z,8.00
2017-08-26T16:06:38.050Z,7.90
2017-08-26T16:09:04.109Z,8.90
2017-08-26T16:11:30.171Z,10.00
2017-08-26T16:13:56.250Z,9.87
2017-08-26T16:16:23.038Z,9.50
2017-08-26T16:18:49.114Z,10.17
2017-08-26T16:21:15.166Z,10.00
2017-08-26T16:23:41.283Z,10.33
2017-08-26T16:26:07.336Z,12.40
2017-08-26T16:28:33.387Z,10.20
2017-08-26T16:30:59.450Z,14.60
2017-08-26T16:33:25.495Z,7.87
2017-08-26T16:35:51.558Z,9.47
2017-08-26T16:38:17.598Z,11.23
2017-08-26T16:40:43.657Z,11.77
2017-08-26T16:43:09.697Z,11.67
2017-08-26T16:45:35.758Z,8.23
2017-08-26T16:48:01.815Z,9.33
2017-08-26T16:50:28.615Z,8.27
2017-08-26T16:52:54.662Z,10.07
2017-08-26T16:55:20.770Z,12.30
2017-08-26T16:57:46.813Z,8.67
2017-08-26T17:00:12.858Z,12.87
2017-08-26T17:02:38.925Z,10.07
2017-08-26T17:05:04.961Z,12.63
2017-08-26T17:07:31.017Z,10.70
2017-08-26T17:09:57.057Z,12.73
2017-08-26T17:12:23.114Z,8.10
2017-08-26T17:14:49.215Z,10.60
2017-08-26T17:17:15.274Z,12.33
2017-08-26T17:19:41.411Z,8.47
2017-08-26T17:22:07.477Z,10.30
2017-08-26T17:24:33.551Z,8.27
2017-08-26T17:26:59.598Z,10.93
2017-08-26T17:29:25.690Z,9.80
2017-08-26T17:31:51.804Z,7.50
2017-08-26T17:34:17.866Z,7.60
2017-08-26T17:36:43.922Z,8.87
2017-08-26T17:39:10.003Z,8.53
2017-08-26T17:41:36.075Z,10.03
2017-08-26T17:44:02.134Z,9.10
2017-08-26T17:46:28.211Z,8.43
2017-08-26T17:48:54.261Z,11.53
2017-08-26T17:51:20.305Z,10.97
2017-08-26T17:53:46.361Z,10.80
2017-08-26T17:56:12.410Z,10.73
2017-08-26T17:58:38.458Z,21.10
2017-08-26T18:01:04.538Z,20.50
2017-08-26T18:03:30.598Z,17.63
2017-08-26T18:05:56.666Z,20.00
2017-08-26T18:08:22.710Z,14.13
2017-08-26T18:10:48.775Z,19.63
2017-08-26T18:13:14.817Z,13.93
2017-08-26T18:15:40.883Z,14.70
2017-08-26T18:18:06.932Z,14.67
2017-08-26T18:20:32.982Z,16.30
2017-08-26T18:22:59.045Z,15.13
2017-08-26T18:25:25.114Z,12.87
2017-08-26T18:27:51.177Z,16.10
2017-08-26T18:30:17.241Z,19.70
2017-08-26T18:32:43.318Z,18.53
2017-08-26T18:35:09.383Z,17.37
2017-08-26T18:37:35.476Z,18.73
2017-08-26T18:40:01.531Z,15.20
2017-08-26T18:42:27.606Z,14.80
2017-08-26T18:44:53.662Z,20.30
2017-08-26T18:47:19.734Z,15.00
2017-08-26T18:49:45.789Z,17.80
2017-08-26T18:52:11.860Z,17.47
2017-08-26T18:54:37.937Z,15.00
2017-08-26T18:57:04.022Z,15.27
2017-08-26T18:59:30.087Z,19.03
2017-08-26T19:01:56.187Z,20.10
2017-08-26T19:04:22.234Z,22.47
2017-08-26T19:06:48.330Z,21.73
2017-08-26T19:09:15.238Z,21.40
2017-08-26T19:11:41.333Z,19.20
2017-08-26T19:14:07.398Z,19.77
2017-08-26T19:16:33.454Z,31.80
2017-08-26T19:18:59.493Z,35.97
2017-08-26T19:21:25.596Z,30.90
2017-08-26T19:23:51.810Z,24.20
2017-08-26T19:26:17.889Z,24.13
2017-08-26T19:28:43.930Z,22.87
2017-08-26T19:31:10.022Z,21.67
2017-08-26T19:33:36.081Z,25.57
2017-08-26T19:36:02.178Z,20.87
2017-08-26T19:38:28.219Z,26.90
2017-08-26T19:40:54.282Z,24.43
2017-08-26T19:43:20.331Z,29.50
2017-08-26T19:45:46.391Z,40.67
2017-08-26T19:48:12.433Z,27.53
2017-08-26T19:50:38.502Z,24.60
2017-08-26T19:53:04.558Z,20.90
2017-08-26T19:55:30.656Z,13.40
2017-08-26T19:57:56.697Z,14.10
2017-08-26T20:00:22.743Z,12.00
2017-08-26T20:02:48.797Z,10.40
2017-08-26T20:05:14.858Z,10.57
2017-08-26T20:07:40.905Z,13.10
2017-08-26T20:10:06.974Z,12.40
2017-08-26T20:12:33.033Z,12.87
2017-08-26T20:14:59.094Z,12.50
2017-08-26T20:17:25.180Z,16.57
2017-08-26T20:19:51.239Z,14.90
2017-08-26T20:22:17.326Z,15.27
2017-08-26T20:24:43.386Z,16.43
2017-08-26T20:27:09.454Z,15.63
2017-08-26T20:29:35.513Z,16.90
2017-08-26T20:32:01.655Z,14.47
2017-08-26T20:34:27.702Z,14.97
2017-08-26T20:36:53.774Z,23.83
2017-08-26T20:39:19.827Z,19.03
2017-08-26T20:41:45.918Z,19.10
2017-08-26T20:44:11.978Z,22.17
2017-08-26T20:46:38.046Z,20.70
2017-08-26T20:49:04.122Z,20.40
2017-08-26T20:51:30.157Z,20.87
2017-08-26T20:53:56.214Z,20.67
2017-08-26T20:56:22.326Z,23.43
2017-08-26T20:58:48.465Z,18.83
2017-08-26T21:01:14.610Z,20.00
2017-08-26T21:03:40.996Z,23.50
2017-08-26T21:06:07.068Z,23.87
2017-08-26T21:08:33.141Z,25.27
2017-08-26T21:10:59.212Z,35.73
2017-08-26T21:13:25.319Z,31.53
2017-08-26T21:15:51.407Z,34.73
2017-08-26T21:18:17.471Z,36.03
2017-08-26T21:20:43.529Z,38.67
2017-08-26T21:23:09.578Z,36.10
2017-08-26T21:25:35.657Z,42.47
2017-08-26T21:28:01.695Z,43.27
2017-08-26T21:30:27.782Z,42.63
2017-08-26T21:32:53.826Z,43.07
2017-08-26T21:35:19.894Z,53.33
2017-08-26T21:37:45.947Z,46.17
2017-08-26T21:40:12.022Z,44.37
2017-08-26T21:42:38.094Z,44.77
2017-08-26T21:45:04.179Z,48.40
2017-08-26T21:47:30.217Z,47.67
2017-08-26T21:49:56.444Z,59.83
2017-08-26T21:52:22.646Z,46.60
2017-08-26T21:54:48.983Z,49.63
2017-08-26T21:57:15.084Z,51.03
2017-08-26T21:59:41.166Z,48.80
2017-08-26T22:02:07.230Z,49.27
2017-08-26T22:04:33.323Z,50.90
2017-08-26T22:06:59.382Z,52.10
2017-08-26T22:09:25.493Z,62.73
2017-08-26T22:11:51.587Z,50.53
2017-08-26T22:14:17.775Z,58.47
2017-08-26T22:16:43.874Z,47.10
2017-08-26T22:19:09.951Z,58.93
2017-08-26T22:21:36.030Z,55.90
2017-08-26T22:24:02.231Z,60.07
2017-08-26T22:26:28.315Z,59.93
2017-08-26T22:28:54.396Z,55.70
2017-08-26T22:31:20.658Z,52.70
2017-08-26T22:33:46.710Z,52.70
2017-08-26T22:36:12.754Z,56.90
2017-08-26T22:38:39.026Z,61.13
2017-08-26T22:41:05.077Z,54.93
2017-08-26T22:43:31.140Z,54.83
2017-08-26T22:45:57.276Z,54.63
2017-08-26T22:48:23.352Z,57.33
2017-08-26T22:50:49.462Z,53.23
2017-08-26T22:53:15.600Z,54.20
2017-08-26T22:55:41.651Z,66.50
2017-08-26T22:58:07.724Z,59.20
2017-08-26T23:00:33.774Z,56.23
2017-08-26T23:02:59.823Z,56.80
2017-08-26T23:05:25.905Z,59.70
2017-08-26T23:07:51.951Z,66.90
2017-08-26T23:10:18.154Z,61.97
2017-08-26T23:12:44.193Z,62.10
2017-08-26T23:15:10.278Z,59.80
2017-08-26T23:17:36.322Z,56.13
2017-08-26T23:20:02.417Z,62.10
2017-08-26T23:22:28.466Z,60.27
2017-08-26T23:24:54.533Z,59.90
2017-08-26T23:27:20.595Z,62.33
2017-08-26T23:29:46.662Z,65.03
2017-08-26T23:32:12.706Z,70.40
2017-08-26T23:34:38.790Z,57.80
2017-08-26T23:37:04.838Z,67.70
2017-08-26T23:39:30.913Z,56.23
2017-08-26T23:41:57.055Z,58.47
2017-08-26T23:44:23.141Z,59.10
2017-08-26T23:46:49.182Z,62.17
2017-08-26T23:49:15.246Z,64.47
2017-08-26T23:51:41.312Z,60.87
2017-08-26T23:54:07.358Z,59.83
2017-08-26T23:56:33.409Z,60.77
2017-08-26T23:58:59.464Z,58.50
